Station Historical Data
Daily Summary for April 1, 2017 Units:  Both    English   Metric
« Previous Day
Next Day »
Daily Weekly Monthly Yearly Custom
  High: Low: Average:
Temperature: 44.8 °F /  7.1 °C 34.9 °F /  1.6 °C 37.5 °F /  3.1 °C
Dew Point: 37.7 °F /  3.2 °C 32.0 °F /  0 °C 34.1 °F /  1.2 °C
Humidity: 94% 70% 88%
Wind Speed: 9.0mph /  14.5km/h - 3.8mph /  6.1km/h
Wind Gust: 14.0mph /  22.5km/h - -
Wind- - SW
Pressure: 30.17 in /  1021.6 hPa 29.74 in /  1007 hPa -
Precipitation: 0.02 in /  0.51 mm    
Historical Graphs
 
 
Tabular Data for April 1, 2017
Time Temperature Dew Point Pressure Wind Wind Speed Wind Gust Humidity Rainfall Rate (Hourly)
00:00 39.6 °F /  4.2 °C 37.7 °F /  3.2 °C 29.74in /  1007hPa NNE 4.0mph /  6.4km/h 7.0mph /  11.3km/h 93% 0.02in /  0.51mm
00:05 39.4 °F /  4.1 °C 37.5 °F /  3.1 °C 29.74in /  1007hPa NNE 4.0mph /  6.4km/h 6.0mph /  9.7km/h 93% 0.01in /  0.25mm
00:10 39.3 °F /  4.1 °C 37.4 °F /  3 °C 29.74in /  1007hPa NNE 4.0mph /  6.4km/h 6.0mph /  9.7km/h 93% 0.01in /  0.25mm
00:15 39.3 °F /  4.1 °C 37.7 °F /  3.2 °C 29.74in /  1007hPa NNE 4.0mph /  6.4km/h 7.0mph /  11.3km/h 94% 0.01in /  0.25mm
00:20 39.3 °F /  4.1 °C 37.7 °F /  3.2 °C 29.74in /  1007hPa NE 5.0mph /  8km/h 6.0mph /  9.7km/h 94% 0.01in /  0.25mm
00:25 39.3 °F /  4.1 °C 37.4 °F /  3 °C 29.75in /  1007.3hPa NE 3.0mph /  4.8km/h 5.0mph /  8km/h 93% 0.01in /  0.25mm
00:30 39.1 °F /  3.9 °C 37.2 °F /  2.9 °C 29.75in /  1007.3hPa NNE 4.0mph /  6.4km/h 7.0mph /  11.3km/h 93% 0.01in /  0.25mm
00:35 39.1 °F /  3.9 °C 37.2 °F /  2.9 °C 29.75in /  1007.3hPa NNE 3.0mph /  4.8km/h 8.0mph /  12.9km/h 93% 0.01in /  0.25mm
00:40 39.0 °F /  3.9 °C 37.1 °F /  2.8 °C 29.75in /  1007.3hPa NNE 4.0mph /  6.4km/h 6.0mph /  9.7km/h 93% 0.01in /  0.25mm
00:45 38.9 °F /  3.8 °C 37.0 °F /  2.8 °C 29.76in /  1007.7hPa North 4.0mph /  6.4km/h 7.0mph /  11.3km/h 93% 0.01in /  0.25mm
00:50 38.8 °F /  3.8 °C 37.2 °F /  2.9 °C 29.76in /  1007.7hPa North 4.0mph /  6.4km/h 7.0mph /  11.3km/h 94% 0.01in /  0.25mm
00:55 38.7 °F /  3.7 °C 37.1 °F /  2.8 °C 29.76in /  1007.7hPa NNE 4.0mph /  6.4km/h 9.0mph /  14.5km/h 94% 0.01in /  0.25mm
01:00 38.7 °F /  3.7 °C 37.1 °F /  2.8 °C 29.76in /  1007.7hPa North 4.0mph /  6.4km/h 9.0mph /  14.5km/h 94% 0.01in /  0.25mm
01:05 38.6 °F /  3.7 °C 36.8 °F /  2.7 °C 29.76in /  1007.7hPa NNE 4.0mph /  6.4km/h 8.0mph /  12.9km/h 93% 0.01in /  0.25mm
01:10 38.3 °F /  3.5 °C 36.5 °F /  2.5 °C 29.77in /  1008hPa NNE 5.0mph /  8km/h 9.0mph /  14.5km/h 93% 0.01in /  0.25mm
01:15 38.2 °F /  3.4 °C 36.4 °F /  2.4 °C 29.77in /  1008hPa NNE 6.0mph /  9.7km/h 9.0mph /  14.5km/h 93% 0.01in /  0.25mm
01:20 38.0 °F /  3.3 °C 36.2 °F /  2.3 °C 29.77in /  1008hPa NNE 5.0mph /  8km/h 9.0mph /  14.5km/h 93% 0.01in /  0.25mm
01:25 38.0 °F /  3.3 °C 36.4 °F /  2.4 °C 29.77in /  1008hPa NNE 4.0mph /  6.4km/h 8.0mph /  12.9km/h 94% 0.01in /  0.25mm
01:30 37.9 °F /  3.3 °C 36.1 °F /  2.3 °C 29.77in /  1008hPa NNE 4.0mph /  6.4km/h 8.0mph /  12.9km/h 93% 0.00in /  0mm
01:35 37.8 °F /  3.2 °C 36.0 °F /  2.2 °C 29.77in /  1008hPa NNE 4.0mph /  6.4km/h 8.0mph /  12.9km/h 93% 0.00in /  0mm
01:40 37.7 °F /  3.2 °C 35.9 °F /  2.2 °C 29.78in /  1008.4hPa North 7.0mph /  11.3km/h 7.0mph /  11.3km/h 93% 0.00in /  0mm
01:45 37.5 °F /  3.1 °C 35.7 °F /  2.1 °C 29.78in /  1008.4hPa NNE 5.0mph /  8km/h 8.0mph /  12.9km/h 93% 0.00in /  0mm
01:50 37.5 °F /  3.1 °C 35.9 °F /  2.2 °C 29.78in /  1008.4hPa NNE 2.0mph /  3.2km/h 8.0mph /  12.9km/h 94% 0.00in /  0mm
01:55 37.5 °F /  3.1 °C 35.7 °F /  2.1 °C 29.78in /  1008.4hPa NNE 4.0mph /  6.4km/h 8.0mph /  12.9km/h 93% 0.00in /  0mm
02:00 37.5 °F /  3.1 °C 35.7 °F /  2.1 °C 29.78in /  1008.4hPa North 6.0mph /  9.7km/h 10.0mph /  16.1km/h 93% 0.00in /  0mm
02:05 37.3 °F /  2.9 °C 35.5 °F /  1.9 °C 29.78in /  1008.4hPa North 6.0mph /  9.7km/h 8.0mph /  12.9km/h 93% 0.00in /  0mm
02:10 37.3 °F /  2.9 °C 35.5 °F /  1.9 °C 29.78in /  1008.4hPa North 3.0mph /  4.8km/h 9.0mph /  14.5km/h 93% 0.00in /  0mm
02:15 37.3 °F /  2.9 °C 35.5 °F /  1.9 °C 29.79in /  1008.7hPa NNE 6.0mph /  9.7km/h 8.0mph /  12.9km/h 93% 0.00in /  0mm
02:20 37.3 °F /  2.9 °C 35.5 °F /  1.9 °C 29.79in /  1008.7hPa NNE 5.0mph /  8km/h 7.0mph /  11.3km/h 93% 0.00in /  0mm
02:25 37.3 °F /  2.9 °C 35.5 °F /  1.9 °C 29.79in /  1008.7hPa NNE 4.0mph /  6.4km/h 7.0mph /  11.3km/h 93% 0.00in /  0mm
02:30 37.3 °F /  2.9 °C 35.5 °F /  1.9 °C 29.80in /  1009hPa NNE 3.0mph /  4.8km/h 6.0mph /  9.7km/h 93% 0.00in /  0mm
02:35 37.2 °F /  2.9 °C 35.4 °F /  1.9 °C 29.80in /  1009hPa NNE 4.0mph /  6.4km/h 9.0mph /  14.5km/h 93% 0.00in /  0mm
02:40 37.2 °F /  2.9 °C 35.4 °F /  1.9 °C 29.80in /  1009hPa NNE 4.0mph /  6.4km/h 9.0mph /  14.5km/h 93% 0.00in /  0mm
02:45 37.2 °F /  2.9 °C 35.4 °F /  1.9 °C 29.81in /  1009.4hPa North 4.0mph /  6.4km/h 8.0mph /  12.9km/h 93% 0.00in /  0mm
02:50 37.1 °F /  2.8 °C 35.3 °F /  1.8 °C 29.81in /  1009.4hPa North 3.0mph /  4.8km/h 9.0mph /  14.5km/h 93% 0.00in /  0mm
02:55 37.1 °F /  2.8 °C 35.5 °F /  1.9 °C 29.81in /  1009.4hPa NNE 5.0mph /  8km/h 8.0mph /  12.9km/h 94% 0.00in /  0mm
03:00 37.1 °F /  2.8 °C 35.5 °F /  1.9 °C 29.81in /  1009.4hPa NNW 3.0mph /  4.8km/h 5.0mph /  8km/h 94% 0.00in /  0mm
03:05 37.0 °F /  2.8 °C 35.4 °F /  1.9 °C 29.82in /  1009.7hPa NNW 7.0mph /  11.3km/h 12.0mph /  19.3km/h 94% 0.00in /  0mm
03:10 36.8 °F /  2.7 °C 35.0 °F /  1.7 °C 29.82in /  1009.7hPa North 3.0mph /  4.8km/h 9.0mph /  14.5km/h 93% 0.00in /  0mm
03:15 36.7 °F /  2.6 °C 34.9 °F /  1.6 °C 29.82in /  1009.7hPa NNE 4.0mph /  6.4km/h 9.0mph /  14.5km/h 93% 0.00in /  0mm
03:20 36.5 °F /  2.5 °C 34.7 °F /  1.5 °C 29.82in /  1009.7hPa North 3.0mph /  4.8km/h 10.0mph /  16.1km/h 93% 0.00in /  0mm
03:25 36.4 °F /  2.4 °C 34.6 °F /  1.4 °C 29.83in /  1010hPa NNW 5.0mph /  8km/h 10.0mph /  16.1km/h 93% 0.00in /  0mm
03:30 36.4 °F /  2.4 °C 34.6 °F /  1.4 °C 29.83in /  1010hPa North 4.0mph /  6.4km/h 10.0mph /  16.1km/h 93% 0.00in /  0mm
03:35 36.4 °F /  2.4 °C 34.8 °F /  1.6 °C 29.83in /  1010hPa North 4.0mph /  6.4km/h 8.0mph /  12.9km/h 94% 0.00in /  0mm
03:40 36.3 °F /  2.4 °C 34.7 °F /  1.5 °C 29.83in /  1010hPa North 4.0mph /  6.4km/h 8.0mph /  12.9km/h 94% 0.00in /  0mm
03:45 36.3 °F /  2.4 °C 34.7 °F /  1.5 °C 29.83in /  1010hPa North 4.0mph /  6.4km/h 10.0mph /  16.1km/h 94% 0.00in /  0mm
03:50 36.2 °F /  2.3 °C 34.6 °F /  1.4 °C 29.84in /  1010.4hPa North 5.0mph /  8km/h 10.0mph /  16.1km/h 94% 0.00in /  0mm
03:55 36.2 °F /  2.3 °C 34.4 °F /  1.3 °C 29.84in /  1010.4hPa North 5.0mph /  8km/h 11.0mph /  17.7km/h 93% 0.00in /  0mm
04:00 36.1 °F /  2.3 °C 34.3 °F /  1.3 °C 29.84in /  1010.4hPa NNW 4.0mph /  6.4km/h 7.0mph /  11.3km/h 93% 0.00in /  0mm
04:05 36.1 °F /  2.3 °C 34.3 °F /  1.3 °C 29.85in /  1010.7hPa North 4.0mph /  6.4km/h 10.0mph /  16.1km/h 93% 0.00in /  0mm
04:10 36.0 °F /  2.2 °C 34.2 °F /  1.2 °C 29.85in /  1010.7hPa NE 4.0mph /  6.4km/h 10.0mph /  16.1km/h 93% 0.00in /  0mm
04:15 35.9 °F /  2.2 °C 34.1 °F /  1.2 °C 29.85in /  1010.7hPa North 5.0mph /  8km/h 9.0mph /  14.5km/h 93% 0.00in /  0mm
04:20 35.7 °F /  2.1 °C 34.1 °F /  1.2 °C 29.86in /  1011.1hPa NNE 7.0mph /  11.3km/h 8.0mph /  12.9km/h 94% 0.00in /  0mm
04:25 35.6 °F /  2 °C 33.8 °F /  1 °C 29.86in /  1011.1hPa North 6.0mph /  9.7km/h 11.0mph /  17.7km/h 93% 0.00in /  0mm
04:30 35.7 °F /  2.1 °C 34.1 °F /  1.2 °C 29.86in /  1011.1hPa North 3.0mph /  4.8km/h 6.0mph /  9.7km/h 94% 0.00in /  0mm
04:35 35.7 °F /  2.1 °C 34.1 °F /  1.2 °C 29.86in /  1011.1hPa North 4.0mph /  6.4km/h 10.0mph /  16.1km/h 94% 0.00in /  0mm
04:40 35.6 °F /  2 °C 34.0 °F /  1.1 °C 29.87in /  1011.4hPa North 4.0mph /  6.4km/h 10.0mph /  16.1km/h 94% 0.00in /  0mm
04:45 35.6 °F /  2 °C 34.0 °F /  1.1 °C 29.87in /  1011.4hPa North 4.0mph /  6.4km/h 8.0mph /  12.9km/h 94% 0.00in /  0mm
04:50 35.6 °F /  2 °C 34.0 °F /  1.1 °C 29.87in /  1011.4hPa North 3.0mph /  4.8km/h 7.0mph /  11.3km/h 94% 0.00in /  0mm
04:55 35.6 °F /  2 °C 34.0 °F /  1.1 °C 29.88in /  1011.7hPa North 4.0mph /  6.4km/h 9.0mph /  14.5km/h 94% 0.00in /  0mm
05:00 35.5 °F /  1.9 °C 33.9 °F /  1.1 °C 29.88in /  1011.7hPa North 6.0mph /  9.7km/h 9.0mph /  14.5km/h 94% 0.00in /  0mm
05:05 35.4 °F /  1.9 °C 33.8 °F /  1 °C 29.88in /  1011.7hPa North 5.0mph /  8km/h 9.0mph /  14.5km/h 94% 0.00in /  0mm
05:10 35.4 °F /  1.9 °C 33.8 °F /  1 °C 29.89in /  1012.1hPa North 5.0mph /  8km/h 9.0mph /  14.5km/h 94% 0.00in /  0mm
05:15 35.4 °F /  1.9 °C 33.8 °F /  1 °C 29.89in /  1012.1hPa NNE 2.0mph /  3.2km/h 7.0mph /  11.3km/h 94% 0.00in /  0mm
05:20 35.4 °F /  1.9 °C 33.8 °F /  1 °C 29.89in /  1012.1hPa NE 4.0mph /  6.4km/h 5.0mph /  8km/h 94% 0.00in /  0mm
05:25 35.4 °F /  1.9 °C 33.8 °F /  1 °C 29.90in /  1012.4hPa North 5.0mph /  8km/h 9.0mph /  14.5km/h 94% 0.00in /  0mm
05:30 35.4 °F /  1.9 °C 33.8 °F /  1 °C 29.90in /  1012.4hPa WNW 5.0mph /  8km/h 9.0mph /  14.5km/h 94% 0.00in /  0mm
05:35 35.3 °F /  1.8 °C 33.7 °F /  0.9 °C 29.90in /  1012.4hPa North 5.0mph /  8km/h 7.0mph /  11.3km/h 94% 0.00in /  0mm
05:40 35.3 °F /  1.8 °C 33.7 °F /  0.9 °C 29.91in /  1012.8hPa North 4.0mph /  6.4km/h 11.0mph /  17.7km/h 94% 0.00in /  0mm
05:45 35.2 °F /  1.8 °C 33.6 °F /  0.9 °C 29.91in /  1012.8hPa North 4.0mph /  6.4km/h 11.0mph /  17.7km/h 94% 0.00in /  0mm
05:50 35.2 °F /  1.8 °C 33.6 °F /  0.9 °C 29.91in /  1012.8hPa NNE 4.0mph /  6.4km/h 9.0mph /  14.5km/h 94% 0.00in /  0mm
05:55 35.2 °F /  1.8 °C 33.6 °F /  0.9 °C 29.91in /  1012.8hPa NNE 4.0mph /  6.4km/h 9.0mph /  14.5km/h 94% 0.00in /  0mm
06:00 35.1 °F /  1.7 °C 33.5 °F /  0.8 °C 29.92in /  1013.1hPa North 4.0mph /  6.4km/h 9.0mph /  14.5km/h 94% 0.00in /  0mm
06:05 35.2 °F /  1.8 °C 33.6 °F /  0.9 °C 29.92in /  1013.1hPa North 2.0mph /  3.2km/h 7.0mph /  11.3km/h 94% 0.00in /  0mm
06:10 35.2 °F /  1.8 °C 33.6 °F /  0.9 °C 29.92in /  1013.1hPa NNW 3.0mph /  4.8km/h 7.0mph /  11.3km/h 94% 0.00in /  0mm
06:15 35.2 °F /  1.8 °C 33.6 °F /  0.9 °C 29.93in /  1013.4hPa North 3.0mph /  4.8km/h 8.0mph /  12.9km/h 94% 0.00in /  0mm
06:20 35.2 °F /  1.8 °C 33.6 °F /  0.9 °C 29.93in /  1013.4hPa North 3.0mph /  4.8km/h 8.0mph /  12.9km/h 94% 0.00in /  0mm
06:25 35.3 °F /  1.8 °C 33.7 °F /  0.9 °C 29.93in /  1013.4hPa NNW 2.0mph /  3.2km/h 5.0mph /  8km/h 94% 0.00in /  0mm
06:30 35.2 °F /  1.8 °C 33.6 °F /  0.9 °C 29.94in /  1013.8hPa NNW 3.0mph /  4.8km/h 8.0mph /  12.9km/h 94% 0.00in /  0mm
06:35 35.2 °F /  1.8 °C 33.6 °F /  0.9 °C 29.94in /  1013.8hPa NNW 3.0mph /  4.8km/h 6.0mph /  9.7km/h 94% 0.00in /  0mm
06:40 35.2 °F /  1.8 °C 33.6 °F /  0.9 °C 29.94in /  1013.8hPa North 4.0mph /  6.4km/h 6.0mph /  9.7km/h 94% 0.00in /  0mm
06:45 35.2 °F /  1.8 °C 33.6 °F /  0.9 °C 29.94in /  1013.8hPa NNW 2.0mph /  3.2km/h 5.0mph /  8km/h 94% 0.00in /  0mm
06:50 35.2 °F /  1.8 °C 33.6 °F /  0.9 °C 29.94in /  1013.8hPa NNW 2.0mph /  3.2km/h 5.0mph /  8km/h 94% 0.00in /  0mm
06:55 35.2 °F /  1.8 °C 33.6 °F /  0.9 °C 29.94in /  1013.8hPa NNW 2.0mph /  3.2km/h 5.0mph /  8km/h 94% 0.00in /  0mm
07:00 35.2 °F /  1.8 °C 33.6 °F /  0.9 °C 29.95in /  1014.1hPa North 5.0mph /  8km/h 8.0mph /  12.9km/h 94% 0.00in /  0mm
07:05 35.2 °F /  1.8 °C 33.6 °F /  0.9 °C 29.95in /  1014.1hPa North 4.0mph /  6.4km/h 7.0mph /  11.3km/h 94% 0.00in /  0mm
07:10 35.1 °F /  1.7 °C 33.5 °F /  0.8 °C 29.95in /  1014.1hPa NNW 4.0mph /  6.4km/h 5.0mph /  8km/h 94% 0.00in /  0mm
07:15 35.1 °F /  1.7 °C 33.5 °F /  0.8 °C 29.96in /  1014.4hPa NNW 4.0mph /  6.4km/h 6.0mph /  9.7km/h 94% 0.00in /  0mm
07:20 35.1 °F /  1.7 °C 33.5 °F /  0.8 °C 29.96in /  1014.4hPa NNW 3.0mph /  4.8km/h 6.0mph /  9.7km/h 94% 0.00in /  0mm
07:25 35.1 °F /  1.7 °C 33.5 °F /  0.8 °C 29.96in /  1014.4hPa NNW 4.0mph /  6.4km/h 7.0mph /  11.3km/h 94% 0.00in /  0mm
07:30 35.1 °F /  1.7 °C 33.5 °F /  0.8 °C 29.96in /  1014.4hPa NNW 4.0mph /  6.4km/h 7.0mph /  11.3km/h 94% 0.00in /  0mm
07:35 35.1 °F /  1.7 °C 33.3 °F /  0.7 °C 29.97in /  1014.8hPa NNW 4.0mph /  6.4km/h 8.0mph /  12.9km/h 93% 0.00in /  0mm
07:40 35.1 °F /  1.7 °C 33.3 °F /  0.7 °C 29.97in /  1014.8hPa NNW 3.0mph /  4.8km/h 6.0mph /  9.7km/h 93% 0.00in /  0mm
07:45 35.1 °F /  1.7 °C 33.5 °F /  0.8 °C 29.97in /  1014.8hPa North 5.0mph /  8km/h 7.0mph /  11.3km/h 94% 0.00in /  0mm
07:50 35.1 °F /  1.7 °C 33.3 °F /  0.7 °C 29.97in /  1014.8hPa North 4.0mph /  6.4km/h 7.0mph /  11.3km/h 93% 0.00in /  0mm
07:55 35.2 °F /  1.8 °C 33.6 °F /  0.9 °C 29.98in /  1015.1hPa North 3.0mph /  4.8km/h 7.0mph /  11.3km/h 94% 0.00in /  0mm
08:00 35.3 °F /  1.8 °C 33.5 °F /  0.8 °C 29.98in /  1015.1hPa North 3.0mph /  4.8km/h 6.0mph /  9.7km/h 93% 0.00in /  0mm
08:05 35.3 °F /  1.8 °C 33.5 °F /  0.8 °C 29.98in /  1015.1hPa NNW 2.0mph /  3.2km/h 6.0mph /  9.7km/h 93% 0.00in /  0mm
08:10 35.4 °F /  1.9 °C 33.6 °F /  0.9 °C 29.98in /  1015.1hPa NNW 3.0mph /  4.8km/h 7.0mph /  11.3km/h 93% 0.01in /  0.25mm
08:15 35.3 °F /  1.8 °C 33.5 °F /  0.8 °C 29.98in /  1015.1hPa NW 3.0mph /  4.8km/h 6.0mph /  9.7km/h 93% 0.01in /  0.25mm
08:20 35.4 °F /  1.9 °C 33.6 °F /  0.9 °C 29.99in /  1015.5hPa NNW 3.0mph /  4.8km/h 5.0mph /  8km/h 93% 0.01in /  0.25mm
08:25 35.5 °F /  1.9 °C 33.7 °F /  0.9 °C 29.99in /  1015.5hPa North 3.0mph /  4.8km/h 6.0mph /  9.7km/h 93% 0.01in /  0.25mm
08:30 35.4 °F /  1.9 °C 33.6 °F /  0.9 °C 29.99in /  1015.5hPa North 3.0mph /  4.8km/h 6.0mph /  9.7km/h 93% 0.01in /  0.25mm
08:35 35.5 °F /  1.9 °C 33.9 °F /  1.1 °C 29.99in /  1015.5hPa NNW 3.0mph /  4.8km/h 8.0mph /  12.9km/h 94% 0.01in /  0.25mm
08:40 35.6 °F /  2 °C 33.8 °F /  1 °C 29.99in /  1015.5hPa NNW 3.0mph /  4.8km/h 8.0mph /  12.9km/h 93% 0.01in /  0.25mm
08:45 35.6 °F /  2 °C 33.8 °F /  1 °C 29.99in /  1015.5hPa North 3.0mph /  4.8km/h 6.0mph /  9.7km/h 93% 0.01in /  0.25mm
08:50 35.6 °F /  2 °C 33.8 °F /  1 °C 30.00in /  1015.8hPa NNW 4.0mph /  6.4km/h 5.0mph /  8km/h 93% 0.01in /  0.25mm
08:55 35.6 °F /  2 °C 33.8 °F /  1 °C 30.00in /  1015.8hPa NW 3.0mph /  4.8km/h 5.0mph /  8km/h 93% 0.01in /  0.25mm
09:00 35.6 °F /  2 °C 33.8 °F /  1 °C 30.00in /  1015.8hPa NNW 2.0mph /  3.2km/h 5.0mph /  8km/h 93% 0.01in /  0.25mm
09:05 35.7 °F /  2.1 °C 33.9 °F /  1.1 °C 30.00in /  1015.8hPa NNW 3.0mph /  4.8km/h 7.0mph /  11.3km/h 93% 0.01in /  0.25mm
09:10 35.6 °F /  2 °C 33.8 °F /  1 °C 30.00in /  1015.8hPa NNW 3.0mph /  4.8km/h 7.0mph /  11.3km/h 93% 0.00in /  0mm
09:15 35.7 °F /  2.1 °C 33.9 °F /  1.1 °C 30.01in /  1016.1hPa North 1.0mph /  1.6km/h 4.0mph /  6.4km/h 93% 0.00in /  0mm
09:20 35.8 °F /  2.1 °C 34.0 °F /  1.1 °C 30.01in /  1016.1hPa North 3.0mph /  4.8km/h 9.0mph /  14.5km/h 93% 0.00in /  0mm
09:25 35.7 °F /  2.1 °C 33.9 °F /  1.1 °C 30.01in /  1016.1hPa NNW 4.0mph /  6.4km/h 6.0mph /  9.7km/h 93% 0.00in /  0mm
09:30 35.8 °F /  2.1 °C 34.0 °F /  1.1 °C 30.02in /  1016.5hPa NW 3.0mph /  4.8km/h 6.0mph /  9.7km/h 93% 0.00in /  0mm
09:35 35.9 °F /  2.2 °C 34.1 °F /  1.2 °C 30.02in /  1016.5hPa NNW 3.0mph /  4.8km/h 6.0mph /  9.7km/h 93% 0.00in /  0mm
09:40 35.7 °F /  2.1 °C 33.9 °F /  1.1 °C 30.02in /  1016.5hPa NNW 3.0mph /  4.8km/h 6.0mph /  9.7km/h 93% 0.00in /  0mm
09:45 35.7 °F /  2.1 °C 33.9 °F /  1.1 °C 30.03in /  1016.8hPa NNW 3.0mph /  4.8km/h 9.0mph /  14.5km/h 93% 0.00in /  0mm
09:50 35.9 °F /  2.2 °C 34.1 °F /  1.2 °C 30.03in /  1016.8hPa NNW 3.0mph /  4.8km/h 9.0mph /  14.5km/h 93% 0.00in /  0mm
09:55 35.9 °F /  2.2 °C 34.1 °F /  1.2 °C 30.03in /  1016.8hPa NNW 2.0mph /  3.2km/h 7.0mph /  11.3km/h 93% 0.00in /  0mm
10:00 35.9 °F /  2.2 °C 34.1 °F /  1.2 °C 30.03in /  1016.8hPa NNW 6.0mph /  9.7km/h 8.0mph /  12.9km/h 93% 0.00in /  0mm
10:05 35.7 °F /  2.1 °C 33.9 °F /  1.1 °C 30.03in /  1016.8hPa NW 4.0mph /  6.4km/h 9.0mph /  14.5km/h 93% 0.00in /  0mm
10:10 35.8 °F /  2.1 °C 34.0 °F /  1.1 °C 30.04in /  1017.2hPa NW 4.0mph /  6.4km/h 9.0mph /  14.5km/h 93% 0.00in /  0mm
10:15 35.8 °F /  2.1 °C 34.0 °F /  1.1 °C 30.04in /  1017.2hPa North 5.0mph /  8km/h 5.0mph /  8km/h 93% 0.00in /  0mm
10:20 35.8 °F /  2.1 °C 34.0 °F /  1.1 °C 30.04in /  1017.2hPa NNW 3.0mph /  4.8km/h 6.0mph /  9.7km/h 93% 0.00in /  0mm
10:25 35.9 °F /  2.2 °C 34.1 °F /  1.2 °C 30.05in /  1017.5hPa NW 3.0mph /  4.8km/h 9.0mph /  14.5km/h 93% 0.00in /  0mm
10:30 35.9 °F /  2.2 °C 34.1 °F /  1.2 °C 30.05in /  1017.5hPa NW 2.0mph /  3.2km/h 8.0mph /  12.9km/h 93% 0.00in /  0mm
10:35 36.0 °F /  2.2 °C 34.2 °F /  1.2 °C 30.05in /  1017.5hPa NW 1.0mph /  1.6km/h 8.0mph /  12.9km/h 93% 0.00in /  0mm
10:40 36.1 °F /  2.3 °C 34.3 °F /  1.3 °C 30.05in /  1017.5hPa WNW 3.0mph /  4.8km/h 8.0mph /  12.9km/h 93% 0.00in /  0mm
10:45 36.2 °F /  2.3 °C 34.1 °F /  1.2 °C 30.05in /  1017.5hPa WNW 2.0mph /  3.2km/h 5.0mph /  8km/h 92% 0.00in /  0mm
10:50 36.1 °F /  2.3 °C 34.0 °F /  1.1 °C 30.06in /  1017.8hPa NW 3.0mph /  4.8km/h 7.0mph /  11.3km/h 92% 0.00in /  0mm
10:55 36.0 °F /  2.2 °C 33.9 °F /  1.1 °C 30.06in /  1017.8hPa NW 3.0mph /  4.8km/h 8.0mph /  12.9km/h 92% 0.00in /  0mm
11:00 36.0 °F /  2.2 °C 33.9 °F /  1.1 °C 30.05in /  1017.5hPa NW 3.0mph /  4.8km/h 6.0mph /  9.7km/h 92% 0.00in /  0mm
11:05 36.1 °F /  2.3 °C 34.0 °F /  1.1 °C 30.06in /  1017.8hPa NNW 6.0mph /  9.7km/h 6.0mph /  9.7km/h 92% 0.00in /  0mm
11:10 35.9 °F /  2.2 °C 33.8 °F /  1 °C 30.05in /  1017.5hPa NW 3.0mph /  4.8km/h 7.0mph /  11.3km/h 92% 0.00in /  0mm
11:15 36.0 °F /  2.2 °C 33.9 °F /  1.1 °C 30.05in /  1017.5hPa NW 3.0mph /  4.8km/h 7.0mph /  11.3km/h 92% 0.00in /  0mm
11:20 36.1 °F /  2.3 °C 34.0 °F /  1.1 °C 30.05in /  1017.5hPa WNW 3.0mph /  4.8km/h 7.0mph /  11.3km/h 92% 0.00in /  0mm
11:25 36.0 °F /  2.2 °C 33.9 °F /  1.1 °C 30.05in /  1017.5hPa NW 4.0mph /  6.4km/h 8.0mph /  12.9km/h 92% 0.00in /  0mm
11:30 36.1 °F /  2.3 °C 34.0 °F /  1.1 °C 30.05in /  1017.5hPa NNW 4.0mph /  6.4km/h 8.0mph /  12.9km/h 92% 0.00in /  0mm
11:35 36.1 °F /  2.3 °C 34.0 °F /  1.1 °C 30.06in /  1017.8hPa WNW 5.0mph /  8km/h 7.0mph /  11.3km/h 92% 0.00in /  0mm
11:40 36.2 °F /  2.3 °C 33.8 °F /  1 °C 30.05in /  1017.5hPa NW 1.0mph /  1.6km/h 8.0mph /  12.9km/h 91% 0.00in /  0mm
11:45 36.5 °F /  2.5 °C 34.4 °F /  1.3 °C 30.05in /  1017.5hPa WNW 4.0mph /  6.4km/h 9.0mph /  14.5km/h 92% 0.00in /  0mm
11:50 36.7 °F /  2.6 °C 34.3 °F /  1.3 °C 30.05in /  1017.5hPa WNW 4.0mph /  6.4km/h 9.0mph /  14.5km/h 91% 0.00in /  0mm
11:55 36.6 °F /  2.6 °C 34.2 °F /  1.2 °C 30.05in /  1017.5hPa NW 4.0mph /  6.4km/h 9.0mph /  14.5km/h 91% 0.00in /  0mm
12:00 36.8 °F /  2.7 °C 34.4 °F /  1.3 °C 30.05in /  1017.5hPa NW 4.0mph /  6.4km/h 9.0mph /  14.5km/h 91% 0.00in /  0mm
12:05 36.8 °F /  2.7 °C 34.1 °F /  1.2 °C 30.06in /  1017.8hPa WNW 2.0mph /  3.2km/h 7.0mph /  11.3km/h 90% 0.00in /  0mm
12:10 37.0 °F /  2.8 °C 34.3 °F /  1.3 °C 30.06in /  1017.8hPa NNW 2.0mph /  3.2km/h 5.0mph /  8km/h 90% 0.00in /  0mm
12:15 36.9 °F /  2.7 °C 34.2 °F /  1.2 °C 30.06in /  1017.8hPa NNW 3.0mph /  4.8km/h 8.0mph /  12.9km/h 90% 0.00in /  0mm
12:20 37.0 °F /  2.8 °C 34.3 °F /  1.3 °C 30.06in /  1017.8hPa NNW 3.0mph /  4.8km/h 8.0mph /  12.9km/h 90% 0.00in /  0mm
12:25 37.4 °F /  3 °C 34.5 °F /  1.4 °C 30.06in /  1017.8hPa NW 3.0mph /  4.8km/h 7.0mph /  11.3km/h 89% 0.00in /  0mm
12:30 37.4 °F /  3 °C 34.5 °F /  1.4 °C 30.06in /  1017.8hPa NW 4.0mph /  6.4km/h 8.0mph /  12.9km/h 89% 0.00in /  0mm
12:35 37.5 °F /  3.1 °C 34.6 °F /  1.4 °C 30.06in /  1017.8hPa West 3.0mph /  4.8km/h 6.0mph /  9.7km/h 89% 0.00in /  0mm
12:40 37.5 °F /  3.1 °C 34.3 °F /  1.3 °C 30.06in /  1017.8hPa NNW 3.0mph /  4.8km/h 8.0mph /  12.9km/h 88% 0.00in /  0mm
12:45 37.6 °F /  3.1 °C 34.4 °F /  1.3 °C 30.06in /  1017.8hPa NNW 1.0mph /  1.6km/h 9.0mph /  14.5km/h 88% 0.00in /  0mm
12:50 37.8 °F /  3.2 °C 34.6 °F /  1.4 °C 30.06in /  1017.8hPa North 5.0mph /  8km/h 9.0mph /  14.5km/h 88% 0.00in /  0mm
12:55 37.6 °F /  3.1 °C 34.4 °F /  1.3 °C 30.06in /  1017.8hPa NW 4.0mph /  6.4km/h 10.0mph /  16.1km/h 88% 0.00in /  0mm
13:00 37.6 °F /  3.1 °C 34.4 °F /  1.3 °C 30.05in /  1017.5hPa NW 4.0mph /  6.4km/h 10.0mph /  16.1km/h 88% 0.00in /  0mm
13:05 37.7 °F /  3.2 °C 34.5 °F /  1.4 °C 30.05in /  1017.5hPa NW 4.0mph /  6.4km/h 8.0mph /  12.9km/h 88% 0.00in /  0mm
13:10 38.3 °F /  3.5 °C 35.1 °F /  1.7 °C 30.05in /  1017.5hPa NW 3.0mph /  4.8km/h 8.0mph /  12.9km/h 88% 0.00in /  0mm
13:15 38.9 °F /  3.8 °C 35.4 °F /  1.9 °C 30.06in /  1017.8hPa WNW 3.0mph /  4.8km/h 8.0mph /  12.9km/h 87% 0.00in /  0mm
13:20 38.9 °F /  3.8 °C 35.1 °F /  1.7 °C 30.06in /  1017.8hPa West 4.0mph /  6.4km/h 9.0mph /  14.5km/h 86% 0.00in /  0mm
13:25 39.3 °F /  4.1 °C 35.5 °F /  1.9 °C 30.07in /  1018.2hPa WNW 4.0mph /  6.4km/h 9.0mph /  14.5km/h 86% 0.00in /  0mm
13:30 39.2 °F /  4 °C 35.1 °F /  1.7 °C 30.07in /  1018.2hPa WNW 4.0mph /  6.4km/h 7.0mph /  11.3km/h 85% 0.00in /  0mm
13:35 39.3 °F /  4.1 °C 34.9 °F /  1.6 °C 30.07in /  1018.2hPa NW 4.0mph /  6.4km/h 8.0mph /  12.9km/h 84% 0.00in /  0mm
13:40 39.5 °F /  4.2 °C 35.1 °F /  1.7 °C 30.07in /  1018.2hPa West 4.0mph /  6.4km/h 8.0mph /  12.9km/h 84% 0.00in /  0mm
13:45 39.3 °F /  4.1 °C 35.2 °F /  1.8 °C 30.07in /  1018.2hPa NW 3.0mph /  4.8km/h 7.0mph /  11.3km/h 85% 0.00in /  0mm
13:50 39.2 °F /  4 °C 35.1 °F /  1.7 °C 30.07in /  1018.2hPa WNW 9.0mph /  14.5km/h 10.0mph /  16.1km/h 85% 0.00in /  0mm
13:55 38.8 °F /  3.8 °C 34.4 °F /  1.3 °C 30.08in /  1018.5hPa WNW 2.0mph /  3.2km/h 9.0mph /  14.5km/h 84% 0.00in /  0mm
14:00 39.1 °F /  3.9 °C 34.7 °F /  1.5 °C 30.08in /  1018.5hPa WNW 5.0mph /  8km/h 10.0mph /  16.1km/h 84% 0.00in /  0mm
14:05 39.1 °F /  3.9 °C 34.7 °F /  1.5 °C 30.08in /  1018.5hPa WNW 5.0mph /  8km/h 10.0mph /  16.1km/h 84% 0.00in /  0mm
14:10 39.1 °F /  3.9 °C 34.4 °F /  1.3 °C 30.07in /  1018.2hPa NW 4.0mph /  6.4km/h 9.0mph /  14.5km/h 83% 0.00in /  0mm
14:15 39.3 °F /  4.1 °C 34.6 °F /  1.4 °C 30.07in /  1018.2hPa NW 4.0mph /  6.4km/h 9.0mph /  14.5km/h 83% 0.00in /  0mm
14:20 39.4 °F /  4.1 °C 34.7 °F /  1.5 °C 30.07in /  1018.2hPa WNW 5.0mph /  8km/h 8.0mph /  12.9km/h 83% 0.00in /  0mm
14:25 39.4 °F /  4.1 °C 34.4 °F /  1.3 °C 30.07in /  1018.2hPa NW 1.0mph /  1.6km/h 8.0mph /  12.9km/h 82% 0.00in /  0mm
14:30 39.3 °F /  4.1 °C 34.0 °F /  1.1 °C 30.07in /  1018.2hPa NW 4.0mph /  6.4km/h 8.0mph /  12.9km/h 81% 0.00in /  0mm
14:35 39.7 °F /  4.3 °C 34.7 °F /  1.5 °C 30.07in /  1018.2hPa NW 4.0mph /  6.4km/h 8.0mph /  12.9km/h 82% 0.00in /  0mm
14:40 39.8 °F /  4.3 °C 34.4 °F /  1.3 °C 30.08in /  1018.5hPa NW 4.0mph /  6.4km/h 8.0mph /  12.9km/h 81% 0.00in /  0mm
14:45 39.9 °F /  4.4 °C 34.9 °F /  1.6 °C 30.08in /  1018.5hPa North 2.0mph /  3.2km/h 7.0mph /  11.3km/h 82% 0.00in /  0mm
14:50 40.2 °F /  4.6 °C 35.1 °F /  1.7 °C 30.08in /  1018.5hPa WNW 4.0mph /  6.4km/h 6.0mph /  9.7km/h 82% 0.00in /  0mm
14:55 40.0 °F /  4.4 °C 34.3 °F /  1.3 °C 30.07in /  1018.2hPa WNW 3.0mph /  4.8km/h 9.0mph /  14.5km/h 80% 0.00in /  0mm
15:00 40.5 °F /  4.7 °C 34.8 °F /  1.6 °C 30.07in /  1018.2hPa NNW 3.0mph /  4.8km/h 7.0mph /  11.3km/h 80% 0.00in /  0mm
15:05 40.6 °F /  4.8 °C 34.3 °F /  1.3 °C 30.07in /  1018.2hPa NNW 4.0mph /  6.4km/h 8.0mph /  12.9km/h 78% 0.00in /  0mm
15:10 40.6 °F /  4.8 °C 34.3 °F /  1.3 °C 30.07in /  1018.2hPa NNW 4.0mph /  6.4km/h 8.0mph /  12.9km/h 78% 0.00in /  0mm
15:15 40.4 °F /  4.7 °C 34.1 °F /  1.2 °C 30.07in /  1018.2hPa NNW 4.0mph /  6.4km/h 7.0mph /  11.3km/h 78% 0.00in /  0mm
15:20 40.3 °F /  4.6 °C 34.0 °F /  1.1 °C 30.08in /  1018.5hPa NW 3.0mph /  4.8km/h 8.0mph /  12.9km/h 78% 0.00in /  0mm
15:25 40.3 °F /  4.6 °C 34.0 °F /  1.1 °C 30.08in /  1018.5hPa NNW 3.0mph /  4.8km/h 10.0mph /  16.1km/h 78% 0.00in /  0mm
15:30 40.4 °F /  4.7 °C 34.1 °F /  1.2 °C 30.08in /  1018.5hPa North 3.0mph /  4.8km/h 7.0mph /  11.3km/h 78% 0.00in /  0mm
15:35 40.6 °F /  4.8 °C 34.3 °F /  1.3 °C 30.08in /  1018.5hPa NNE 7.0mph /  11.3km/h 7.0mph /  11.3km/h 78% 0.00in /  0mm
15:40 40.9 °F /  4.9 °C 34.6 °F /  1.4 °C 30.08in /  1018.5hPa NNW 4.0mph /  6.4km/h 7.0mph /  11.3km/h 78% 0.00in /  0mm
15:45 40.9 °F /  4.9 °C 33.9 °F /  1.1 °C 30.08in /  1018.5hPa NW 4.0mph /  6.4km/h 6.0mph /  9.7km/h 76% 0.00in /  0mm
15:50 41.1 °F /  5.1 °C 34.1 °F /  1.2 °C 30.08in /  1018.5hPa NW 3.0mph /  4.8km/h 7.0mph /  11.3km/h 76% 0.00in /  0mm
15:55 41.5 °F /  5.3 °C 34.8 °F /  1.6 °C 30.08in /  1018.5hPa WNW 2.0mph /  3.2km/h 5.0mph /  8km/h 77% 0.00in /  0mm
16:00 41.4 °F /  5.2 °C 34.1 °F /  1.2 °C 30.08in /  1018.5hPa WNW 2.0mph /  3.2km/h 7.0mph /  11.3km/h 75% 0.00in /  0mm
16:05 41.8 °F /  5.4 °C 34.8 °F /  1.6 °C 30.08in /  1018.5hPa West 6.0mph /  9.7km/h 7.0mph /  11.3km/h 76% 0.00in /  0mm
16:10 41.9 °F /  5.5 °C 34.6 °F /  1.4 °C 30.08in /  1018.5hPa WNW 3.0mph /  4.8km/h 7.0mph /  11.3km/h 75% 0.00in /  0mm
16:15 41.6 °F /  5.3 °C 33.9 °F /  1.1 °C 30.08in /  1018.5hPa WNW 3.0mph /  4.8km/h 8.0mph /  12.9km/h 74% 0.00in /  0mm
16:20 41.7 °F /  5.4 °C 34.4 °F /  1.3 °C 30.09in /  1018.8hPa WNW 3.0mph /  4.8km/h 8.0mph /  12.9km/h 75% 0.00in /  0mm
16:25 41.8 °F /  5.4 °C 34.1 °F /  1.2 °C 30.09in /  1018.8hPa NW 3.0mph /  4.8km/h 8.0mph /  12.9km/h 74% 0.00in /  0mm
16:30 41.8 °F /  5.4 °C 34.1 °F /  1.2 °C 30.09in /  1018.8hPa WNW 4.0mph /  6.4km/h 7.0mph /  11.3km/h 74% 0.00in /  0mm
16:35 41.9 °F /  5.5 °C 34.2 °F /  1.2 °C 30.10in /  1019.2hPa NNW 7.0mph /  11.3km/h 8.0mph /  12.9km/h 74% 0.00in /  0mm
16:40 42.0 °F /  5.6 °C 34.3 °F /  1.3 °C 30.10in /  1019.2hPa WNW 2.0mph /  3.2km/h 8.0mph /  12.9km/h 74% 0.00in /  0mm
16:45 42.2 °F /  5.7 °C 34.2 °F /  1.2 °C 30.11in /  1019.5hPa WNW 4.0mph /  6.4km/h 9.0mph /  14.5km/h 73% 0.00in /  0mm
16:50 42.0 °F /  5.6 °C 34.3 °F /  1.3 °C 30.11in /  1019.5hPa West 4.0mph /  6.4km/h 9.0mph /  14.5km/h 74% 0.00in /  0mm
16:55 42.1 °F /  5.6 °C 34.4 °F /  1.3 °C 30.11in /  1019.5hPa West 4.0mph /  6.4km/h 9.0mph /  14.5km/h 74% 0.00in /  0mm
17:00 42.2 °F /  5.7 °C 34.2 °F /  1.2 °C 30.11in /  1019.5hPa WNW 4.0mph /  6.4km/h 7.0mph /  11.3km/h 73% 0.00in /  0mm
17:05 42.5 °F /  5.8 °C 34.8 °F /  1.6 °C 30.12in /  1019.9hPa West 5.0mph /  8km/h 7.0mph /  11.3km/h 74% 0.00in /  0mm
17:10 42.5 °F /  5.8 °C 34.8 °F /  1.6 °C 30.11in /  1019.5hPa West 3.0mph /  4.8km/h 9.0mph /  14.5km/h 74% 0.00in /  0mm
17:15 42.7 °F /  5.9 °C 34.6 °F /  1.4 °C 30.11in /  1019.5hPa West 4.0mph /  6.4km/h 9.0mph /  14.5km/h 73% 0.00in /  0mm
17:20 43.3 °F /  6.3 °C 35.6 °F /  2 °C 30.11in /  1019.5hPa West 3.0mph /  4.8km/h 9.0mph /  14.5km/h 74% 0.00in /  0mm
17:25 43.3 °F /  6.3 °C 34.9 °F /  1.6 °C 30.11in /  1019.5hPa West 4.0mph /  6.4km/h 8.0mph /  12.9km/h 72% 0.00in /  0mm
17:30 43.6 °F /  6.4 °C 35.5 °F /  1.9 °C 30.11in /  1019.5hPa West 5.0mph /  8km/h 8.0mph /  12.9km/h 73% 0.00in /  0mm
17:35 44.0 °F /  6.7 °C 35.2 °F /  1.8 °C 30.11in /  1019.5hPa Calm   7.0mph /  11.3km/h 71% 0.00in /  0mm
17:40 44.4 °F /  6.9 °C 35.9 °F /  2.2 °C 30.11in /  1019.5hPa WNW 2.0mph /  3.2km/h 6.0mph /  9.7km/h 72% 0.00in /  0mm
17:45 44.8 °F /  7.1 °C 35.6 °F /  2 °C 30.11in /  1019.5hPa WNW 3.0mph /  4.8km/h 6.0mph /  9.7km/h 70% 0.00in /  0mm
17:50 43.9 °F /  6.6 °C 35.5 °F /  1.9 °C 30.11in /  1019.5hPa WSW 3.0mph /  4.8km/h 8.0mph /  12.9km/h 72% 0.00in /  0mm
17:55 42.6 °F /  5.9 °C 35.6 °F /  2 °C 30.11in /  1019.5hPa SW 4.0mph /  6.4km/h 10.0mph /  16.1km/h 76% 0.00in /  0mm
18:00 41.6 °F /  5.3 °C 34.6 °F /  1.4 °C 30.11in /  1019.5hPa SW 5.0mph /  8km/h 10.0mph /  16.1km/h 76% 0.00in /  0mm
18:05 41.1 °F /  5.1 °C 34.8 °F /  1.6 °C 30.11in /  1019.5hPa WSW 7.0mph /  11.3km/h 12.0mph /  19.3km/h 78% 0.00in /  0mm
18:10 40.9 °F /  4.9 °C 34.6 °F /  1.4 °C 30.11in /  1019.5hPa SW 7.0mph /  11.3km/h 9.0mph /  14.5km/h 78% 0.00in /  0mm
18:15 40.8 °F /  4.9 °C 34.5 °F /  1.4 °C 30.11in /  1019.5hPa SW 6.0mph /  9.7km/h 9.0mph /  14.5km/h 78% 0.00in /  0mm
18:20 40.5 °F /  4.7 °C 34.2 °F /  1.2 °C 30.11in /  1019.5hPa SW 5.0mph /  8km/h 9.0mph /  14.5km/h 78% 0.00in /  0mm
18:25 40.1 °F /  4.5 °C 33.8 °F /  1 °C 30.11in /  1019.5hPa SW 6.0mph /  9.7km/h 11.0mph /  17.7km/h 78% 0.00in /  0mm
18:30 40.1 °F /  4.5 °C 34.4 °F /  1.3 °C 30.11in /  1019.5hPa SW 5.0mph /  8km/h 11.0mph /  17.7km/h 80% 0.00in /  0mm
18:35 40.1 °F /  4.5 °C 34.1 °F /  1.2 °C 30.12in /  1019.9hPa SW 6.0mph /  9.7km/h 10.0mph /  16.1km/h 79% 0.00in /  0mm
18:40 39.8 °F /  4.3 °C 33.8 °F /  1 °C 30.11in /  1019.5hPa SSW 4.0mph /  6.4km/h 9.0mph /  14.5km/h 79% 0.00in /  0mm
18:45 39.6 °F /  4.2 °C 33.6 °F /  0.9 °C 30.11in /  1019.5hPa WSW 3.0mph /  4.8km/h 11.0mph /  17.7km/h 79% 0.00in /  0mm
18:50 39.5 °F /  4.2 °C 33.8 °F /  1 °C 30.11in /  1019.5hPa WSW 5.0mph /  8km/h 11.0mph /  17.7km/h 80% 0.00in /  0mm
18:55 39.7 °F /  4.3 °C 34.0 °F /  1.1 °C 30.12in /  1019.9hPa SW 5.0mph /  8km/h 10.0mph /  16.1km/h 80% 0.00in /  0mm
19:00 39.7 °F /  4.3 °C 33.7 °F /  0.9 °C 30.12in /  1019.9hPa WSW 5.0mph /  8km/h 10.0mph /  16.1km/h 79% 0.00in /  0mm
19:05 39.5 °F /  4.2 °C 33.5 °F /  0.8 °C 30.12in /  1019.9hPa WSW 5.0mph /  8km/h 10.0mph /  16.1km/h 79% 0.00in /  0mm
19:10 39.3 °F /  4.1 °C 33.3 °F /  0.7 °C 30.12in /  1019.9hPa WSW 6.0mph /  9.7km/h 12.0mph /  19.3km/h 79% 0.00in /  0mm
19:15 39.1 °F /  3.9 °C 33.1 °F /  0.6 °C 30.13in /  1020.2hPa SW 6.0mph /  9.7km/h 12.0mph /  19.3km/h 79% 0.00in /  0mm
19:20 38.9 °F /  3.8 °C 33.3 °F /  0.7 °C 30.13in /  1020.2hPa SW 2.0mph /  3.2km/h 10.0mph /  16.1km/h 80% 0.00in /  0mm
19:25 38.6 °F /  3.7 °C 33.3 °F /  0.7 °C 30.13in /  1020.2hPa WSW 7.0mph /  11.3km/h 12.0mph /  19.3km/h 81% 0.00in /  0mm
19:30 38.4 °F /  3.6 °C 33.1 °F /  0.6 °C 30.13in /  1020.2hPa SSW 4.0mph /  6.4km/h 14.0mph /  22.5km/h 81% 0.00in /  0mm
19:35 38.1 °F /  3.4 °C 33.1 °F /  0.6 °C 30.13in /  1020.2hPa SW 5.0mph /  8km/h 9.0mph /  14.5km/h 82% 0.00in /  0mm
19:40 37.9 °F /  3.3 °C 32.9 °F /  0.5 °C 30.13in /  1020.2hPa West 7.0mph /  11.3km/h 9.0mph /  14.5km/h 82% 0.00in /  0mm
19:45 37.7 °F /  3.2 °C 32.7 °F /  0.4 °C 30.13in /  1020.2hPa WSW 4.0mph /  6.4km/h 11.0mph /  17.7km/h 82% 0.00in /  0mm
19:50 37.5 °F /  3.1 °C 32.8 °F /  0.4 °C 30.13in /  1020.2hPa SW 6.0mph /  9.7km/h 10.0mph /  16.1km/h 83% 0.00in /  0mm
19:55 37.4 °F /  3 °C 32.7 °F /  0.4 °C 30.13in /  1020.2hPa West 3.0mph /  4.8km/h 11.0mph /  17.7km/h 83% 0.00in /  0mm
20:00 37.1 °F /  2.8 °C 32.7 °F /  0.4 °C 30.13in /  1020.2hPa WSW 5.0mph /  8km/h 11.0mph /  17.7km/h 84% 0.00in /  0mm
20:05 37.0 °F /  2.8 °C 32.6 °F /  0.3 °C 30.14in /  1020.5hPa WSW 5.0mph /  8km/h 11.0mph /  17.7km/h 84% 0.00in /  0mm
20:10 36.9 °F /  2.7 °C 32.5 °F /  0.3 °C 30.14in /  1020.5hPa WSW 5.0mph /  8km/h 11.0mph /  17.7km/h 84% 0.00in /  0mm
20:15 36.8 °F /  2.7 °C 32.7 °F /  0.4 °C 30.14in /  1020.5hPa WSW 5.0mph /  8km/h 10.0mph /  16.1km/h 85% 0.00in /  0mm
20:20 36.7 °F /  2.6 °C 32.6 °F /  0.3 °C 30.14in /  1020.5hPa WSW 5.0mph /  8km/h 9.0mph /  14.5km/h 85% 0.00in /  0mm
20:25 36.7 °F /  2.6 °C 32.6 °F /  0.3 °C 30.15in /  1020.9hPa WSW 6.0mph /  9.7km/h 13.0mph /  20.9km/h 85% 0.00in /  0mm
20:30 36.7 °F /  2.6 °C 32.6 °F /  0.3 °C 30.15in /  1020.9hPa WSW 6.0mph /  9.7km/h 13.0mph /  20.9km/h 85% 0.00in /  0mm
20:35 36.6 °F /  2.6 °C 32.5 °F /  0.3 °C 30.15in /  1020.9hPa West 4.0mph /  6.4km/h 11.0mph /  17.7km/h 85% 0.00in /  0mm
20:40 36.5 °F /  2.5 °C 32.4 °F /  0.2 °C 30.15in /  1020.9hPa West 6.0mph /  9.7km/h 11.0mph /  17.7km/h 85% 0.00in /  0mm
20:45 36.6 °F /  2.6 °C 32.8 °F /  0.4 °C 30.15in /  1020.9hPa West 8.0mph /  12.9km/h 11.0mph /  17.7km/h 86% 0.00in /  0mm
20:50 36.5 °F /  2.5 °C 32.4 °F /  0.2 °C 30.15in /  1020.9hPa SSW 5.0mph /  8km/h 11.0mph /  17.7km/h 85% 0.00in /  0mm
20:55 36.4 °F /  2.4 °C 32.3 °F /  0.2 °C 30.15in /  1020.9hPa SW 3.0mph /  4.8km/h 7.0mph /  11.3km/h 85% 0.00in /  0mm
21:00 36.3 °F /  2.4 °C 32.5 °F /  0.3 °C 30.15in /  1020.9hPa WSW 4.0mph /  6.4km/h 8.0mph /  12.9km/h 86% 0.00in /  0mm
21:05 36.2 °F /  2.3 °C 32.4 °F /  0.2 °C 30.15in /  1020.9hPa WSW 4.0mph /  6.4km/h 8.0mph /  12.9km/h 86% 0.00in /  0mm
21:10 36.2 °F /  2.3 °C 32.4 °F /  0.2 °C 30.16in /  1021.2hPa WSW 4.0mph /  6.4km/h 9.0mph /  14.5km/h 86% 0.00in /  0mm
21:15 36.3 °F /  2.4 °C 32.5 °F /  0.3 °C 30.16in /  1021.2hPa WSW 5.0mph /  8km/h 9.0mph /  14.5km/h 86% 0.00in /  0mm
21:20 36.2 °F /  2.3 °C 32.4 °F /  0.2 °C 30.16in /  1021.2hPa WSW 5.0mph /  8km/h 9.0mph /  14.5km/h 86% 0.00in /  0mm
21:25 36.2 °F /  2.3 °C 32.4 °F /  0.2 °C 30.16in /  1021.2hPa WSW 5.0mph /  8km/h 12.0mph /  19.3km/h 86% 0.00in /  0mm
21:30 36.2 °F /  2.3 °C 32.4 °F /  0.2 °C 30.16in /  1021.2hPa WSW 3.0mph /  4.8km/h 10.0mph /  16.1km/h 86% 0.00in /  0mm
21:35 36.1 °F /  2.3 °C 32.3 °F /  0.2 °C 30.16in /  1021.2hPa SW 6.0mph /  9.7km/h 8.0mph /  12.9km/h 86% 0.00in /  0mm
21:40 36.1 °F /  2.3 °C 32.3 °F /  0.2 °C 30.16in /  1021.2hPa WSW 3.0mph /  4.8km/h 10.0mph /  16.1km/h 86% 0.00in /  0mm
21:45 36.1 °F /  2.3 °C 32.3 °F /  0.2 °C 30.16in /  1021.2hPa SW 5.0mph /  8km/h 7.0mph /  11.3km/h 86% 0.00in /  0mm
21:50 35.9 °F /  2.2 °C 32.1 °F /  0.1 °C 30.17in /  1021.6hPa SW 2.0mph /  3.2km/h 6.0mph /  9.7km/h 86% 0.00in /  0mm
21:55 35.8 °F /  2.1 °C 32.0 °F /  0 °C 30.16in /  1021.2hPa SW 3.0mph /  4.8km/h 8.0mph /  12.9km/h 86% 0.00in /  0mm
22:00 35.7 °F /  2.1 °C 32.2 °F /  0.1 °C 30.17in /  1021.6hPa SSE 2.0mph /  3.2km/h 6.0mph /  9.7km/h 87% 0.00in /  0mm
22:05 35.6 °F /  2 °C 32.1 °F /  0.1 °C 30.17in /  1021.6hPa SW 3.0mph /  4.8km/h 6.0mph /  9.7km/h 87% 0.00in /  0mm
22:10 35.6 °F /  2 °C 32.4 °F /  0.2 °C 30.17in /  1021.6hPa SW 3.0mph /  4.8km/h 6.0mph /  9.7km/h 88% 0.00in /  0mm
22:15 35.5 °F /  1.9 °C 32.3 °F /  0.2 °C 30.17in /  1021.6hPa SW 3.0mph /  4.8km/h 6.0mph /  9.7km/h 88% 0.00in /  0mm
22:20 35.5 °F /  1.9 °C 32.3 °F /  0.2 °C 30.17in /  1021.6hPa SW 3.0mph /  4.8km/h 6.0mph /  9.7km/h 88% 0.00in /  0mm
22:25 35.5 °F /  1.9 °C 32.3 °F /  0.2 °C 30.17in /  1021.6hPa SW 3.0mph /  4.8km/h 7.0mph /  11.3km/h 88% 0.00in /  0mm
22:30 35.5 °F /  1.9 °C 32.3 °F /  0.2 °C 30.17in /  1021.6hPa SW 3.0mph /  4.8km/h 7.0mph /  11.3km/h 88% 0.00in /  0mm
22:35 35.5 °F /  1.9 °C 32.3 °F /  0.2 °C 30.17in /  1021.6hPa SW 2.0mph /  3.2km/h 5.0mph /  8km/h 88% 0.00in /  0mm
22:40 35.4 °F /  1.9 °C 32.5 °F /  0.3 °C 30.17in /  1021.6hPa SW 3.0mph /  4.8km/h 5.0mph /  8km/h 89% 0.00in /  0mm
22:45 35.5 °F /  1.9 °C 32.6 °F /  0.3 °C 30.17in /  1021.6hPa SW 3.0mph /  4.8km/h 7.0mph /  11.3km/h 89% 0.00in /  0mm
22:50 35.6 °F /  2 °C 32.7 °F /  0.4 °C 30.17in /  1021.6hPa SW 3.0mph /  4.8km/h 6.0mph /  9.7km/h 89% 0.00in /  0mm
22:55 35.7 °F /  2.1 °C 32.8 °F /  0.4 °C 30.17in /  1021.6hPa WSW 4.0mph /  6.4km/h 9.0mph /  14.5km/h 89% 0.00in /  0mm
23:00 35.7 °F /  2.1 °C 32.5 °F /  0.3 °C 30.17in /  1021.6hPa SW 2.0mph /  3.2km/h 6.0mph /  9.7km/h 88% 0.00in /  0mm
23:05 35.6 °F /  2 °C 32.7 °F /  0.4 °C 30.17in /  1021.6hPa SW 3.0mph /  4.8km/h 3.0mph /  4.8km/h 89% 0.00in /  0mm
23:10 35.6 °F /  2 °C 32.7 °F /  0.4 °C 30.17in /  1021.6hPa WSW 2.0mph /  3.2km/h 5.0mph /  8km/h 89% 0.00in /  0mm
23:15 35.5 °F /  1.9 °C 32.6 °F /  0.3 °C 30.16in /  1021.2hPa SW 2.0mph /  3.2km/h 5.0mph /  8km/h 89% 0.00in /  0mm
23:20 35.6 °F /  2 °C 32.7 °F /  0.4 °C 30.17in /  1021.6hPa SW 2.0mph /  3.2km/h 5.0mph /  8km/h 89% 0.00in /  0mm
23:25 35.6 °F /  2 °C 32.7 °F /  0.4 °C 30.17in /  1021.6hPa SW 2.0mph /  3.2km/h 5.0mph /  8km/h 89% 0.00in /  0mm
23:30 35.6 °F /  2 °C 32.7 °F /  0.4 °C 30.17in /  1021.6hPa SW 1.0mph /  1.6km/h 4.0mph /  6.4km/h 89% 0.00in /  0mm
23:35 35.5 °F /  1.9 °C 32.6 °F /  0.3 °C 30.17in /  1021.6hPa SW 2.0mph /  3.2km/h 4.0mph /  6.4km/h 89% 0.00in /  0mm
23:40 35.6 °F /  2 °C 32.7 °F /  0.4 °C 30.17in /  1021.6hPa SW 2.0mph /  3.2km/h 4.0mph /  6.4km/h 89% 0.00in /  0mm
23:45 35.4 °F /  1.9 °C 32.5 °F /  0.3 °C 30.17in /  1021.6hPa SW 2.0mph /  3.2km/h 4.0mph /  6.4km/h 89% 0.00in /  0mm
23:49 35.1 °F /  1.7 °C 32.2 °F /  0.1 °C 30.17in /  1021.6hPa SW 1.0mph /  1.6km/h 3.0mph /  4.8km/h 89% 0.00in /  0mm
23:55 34.9 °F /  1.6 °C 32.0 °F /  0 °C 30.17in /  1021.6hPa SW 1.0mph /  1.6km/h 3.0mph /  4.8km/h 89% 0.00in /  0mm
Buffalo, New York, USA
Compliments of Weather Underground - 2.5 mb